AIRPORT ID: KVKX

DATE: 2024-05-27 ZULU TIME: 22.15 LOCAL TIME: 18.15


METAR KVKX 272215Z AUTO VRB04KT 10SM 27/23 A2970

ALTIMETER: A2970 Q1006

DENSITY ALT: 1600 Ft

WIND DIRECT: 210

WIND SPEED: 4 Gust

WIND CONDITIONS:

VISIBILTY: 10SM 9999M

TEMPERATURE: 80 F 27 C

DEW POINT: 73 F 23 C

HUMID: 80%

LCL: 1,000-3,000 feet

RADIO CHECK: 0

ADVISARIES: 0

GREETINGS: 0

CONVERSATIONS: 0